ROMMA est une association bénévole à but non lucratif. Votre soutien est indispensable : ADHERER à ROMMA ou FAIRE un DON

Eygliers - (05, Hautes-Alpes)

Guillestrois (965 m)   Longitude: 6° 38' 04" E   Latitude: 44° 40' 37" N Station partenaire n°53
 

Détail journalier du     <<     >>

Température Precipitation Humidité Vent Dir Rafale Dir. rafale Ensol.
Heure (°C) (mm) (%) (km/h) (km/h) (min)
01:00 1.30943NNE15S0
02:00 1.10941NNE5N0
03:00 1.10941NNE6N0
04:00 1.00942N8N0
05:00 0.90932NNE8NNO0
06:00 0.30913N11NNE0
07:00 -0.10896N16N0
08:00 -0.40895N15NNO0
09:00 -0.60893NE10NNO10
10:00 0.80842NNO8NNO55
11:00 2.10782OSO10O60
12:00 3.80735O13NO60
13:00 5.30647ONO19NO60
14:00 4.80684OSO11SO20
15:00 6.40636SO13SSO60
16:00 6.20636SSO13OSO60
17:00 3.90715N13NO30
18:00 1.80843E10E0
19:00 2.20844E15E0
20:00 1.30864NNO13SE0
21:00 0.408803NNO0
22:00 0.0090000
23:00 -0.40922ENE6ENE0
minuit -0.40931NE6NE0

Graphique du 26-11-2018

 

Serveur OMMA